Terminal Aerodrome Forecast
Issued by NWS Tallahassee, FL

Home | Current Version | Previous Version | Text Only | Print | Product List | Glossary On
Versions: 1 2 3 4 5 6 7 8 9 10 11 12 13 14 15 16 17 18 19 20 21 22
000
FTUS42 KTAE 012216 AAA
TAFTLH
TAF AMD
KTLH 012216Z 0122/0218 VRB05KT P6SM -TSRA SCT030CB BKN050
      TEMPO 0122/0201 3SM +TSRA BR BKN025CB BKN050
     FM020100 VRB03KT P6SM BKN050
     FM021000 00000KT 5SM BR BKN005
     FM021400 03004KT P6SM VCSH BKN025=

USA.gov is the U.S. government's official web portal to all federal, state and local government web resources and services.